sensor_id;sensor_type;location;lat;lon;timestamp;P1;durP1;ratioP1;P2;durP2;ratioP2
48522;SDS011;34315;50.150;11.070;2023-02-28T00:00:10;8.45;;;4.43;;
48522;SDS011;34315;50.150;11.070;2023-02-28T00:05:13;8.60;;;4.40;;
48522;SDS011;34315;50.150;11.070;2023-02-28T00:10:18;7.75;;;5.03;;
48522;SDS011;34315;50.150;11.070;2023-02-28T00:15:21;9.93;;;4.83;;
48522;SDS011;34315;50.150;11.070;2023-02-28T00:20:23;8.50;;;4.55;;
48522;SDS011;34315;50.150;11.070;2023-02-28T00:25:25;8.02;;;4.30;;
48522;SDS011;34315;50.150;11.070;2023-02-28T00:30:26;7.43;;;4.28;;
48522;SDS011;34315;50.150;11.070;2023-02-28T00:35:27;8.07;;;4.75;;
48522;SDS011;34315;50.150;11.070;2023-02-28T00:40:28;26.02;;;10.32;;
48522;SDS011;34315;50.150;11.070;2023-02-28T00:45:29;12.23;;;5.57;;
48522;SDS011;34315;50.150;11.070;2023-02-28T00:50:31;9.27;;;4.53;;
48522;SDS011;34315;50.150;11.070;2023-02-28T00:55:32;6.78;;;3.83;;
48522;SDS011;34315;50.150;11.070;2023-02-28T01:00:34;8.20;;;4.15;;
48522;SDS011;34315;50.150;11.070;2023-02-28T01:05:35;8.60;;;4.05;;
48522;SDS011;34315;50.150;11.070;2023-02-28T01:10:36;8.00;;;4.18;;
48522;SDS011;34315;50.150;11.070;2023-02-28T01:15:38;7.22;;;4.00;;
48522;SDS011;34315;50.150;11.070;2023-02-28T01:20:41;7.60;;;3.85;;
48522;SDS011;34315;50.150;11.070;2023-02-28T01:25:43;6.35;;;3.60;;
48522;SDS011;34315;50.150;11.070;2023-02-28T01:30:48;8.02;;;4.50;;
48522;SDS011;34315;50.150;11.070;2023-02-28T01:35:49;6.40;;;3.53;;
48522;SDS011;34315;50.150;11.070;2023-02-28T01:40:51;7.40;;;4.20;;
48522;SDS011;34315;50.150;11.070;2023-02-28T01:45:53;8.80;;;4.53;;
48522;SDS011;34315;50.150;11.070;2023-02-28T01:50:54;7.25;;;4.13;;
48522;SDS011;34315;50.150;11.070;2023-02-28T01:55:57;6.38;;;3.70;;
48522;SDS011;34315;50.150;11.070;2023-02-28T02:00:58;7.25;;;3.63;;
48522;SDS011;34315;50.150;11.070;2023-02-28T02:06:01;6.18;;;3.20;;
48522;SDS011;34315;50.150;11.070;2023-02-28T02:11:02;6.00;;;3.22;;
48522;SDS011;34315;50.150;11.070;2023-02-28T02:16:07;8.20;;;4.03;;
48522;SDS011;34315;50.150;11.070;2023-02-28T02:37:36;7.15;;;3.70;;
48522;SDS011;34315;50.150;11.070;2023-02-28T02:43:06;5.20;;;2.92;;
48522;SDS011;34315;50.150;11.070;2023-02-28T02:48:11;6.78;;;3.25;;
48522;SDS011;34315;50.150;11.070;2023-02-28T02:53:14;8.75;;;4.32;;
48522;SDS011;34315;50.150;11.070;2023-02-28T02:58:18;7.93;;;3.90;;
48522;SDS011;34315;50.150;11.070;2023-02-28T03:03:22;8.97;;;3.63;;
48522;SDS011;34315;50.150;11.070;2023-02-28T03:08:30;7.40;;;3.75;;
48522;SDS011;34315;50.150;11.070;2023-02-28T03:18:54;7.82;;;3.50;;
48522;SDS011;34315;50.150;11.070;2023-02-28T03:24:11;6.80;;;3.78;;
48522;SDS011;34315;50.150;11.070;2023-02-28T03:34:29;6.15;;;3.40;;
48522;SDS011;34315;50.150;11.070;2023-02-28T03:39:37;7.68;;;3.50;;
48522;SDS011;34315;50.150;11.070;2023-02-28T03:44:49;8.60;;;3.83;;
48522;SDS011;34315;50.150;11.070;2023-02-28T03:50:01;6.68;;;3.53;;
48522;SDS011;34315;50.150;11.070;2023-02-28T03:55:07;7.20;;;3.40;;
48522;SDS011;34315;50.150;11.070;2023-02-28T04:00:14;6.78;;;3.45;;
48522;SDS011;34315;50.150;11.070;2023-02-28T04:05:17;6.78;;;3.40;;
48522;SDS011;34315;50.150;11.070;2023-02-28T04:10:18;6.55;;;3.78;;
48522;SDS011;34315;50.150;11.070;2023-02-28T04:15:19;5.88;;;3.13;;
48522;SDS011;34315;50.150;11.070;2023-02-28T04:20:23;7.70;;;3.53;;
48522;SDS011;34315;50.150;11.070;2023-02-28T04:25:24;5.82;;;3.17;;
48522;SDS011;34315;50.150;11.070;2023-02-28T04:30:25;6.95;;;3.40;;
48522;SDS011;34315;50.150;11.070;2023-02-28T04:35:26;6.53;;;3.67;;
48522;SDS011;34315;50.150;11.070;2023-02-28T04:40:27;6.70;;;3.85;;
48522;SDS011;34315;50.150;11.070;2023-02-28T04:45:29;7.90;;;4.18;;
48522;SDS011;34315;50.150;11.070;2023-02-28T04:50:32;8.67;;;3.40;;
48522;SDS011;34315;50.150;11.070;2023-02-28T04:55:33;7.38;;;4.32;;
48522;SDS011;34315;50.150;11.070;2023-02-28T05:00:35;7.45;;;4.03;;
48522;SDS011;34315;50.150;11.070;2023-02-28T05:05:36;11.55;;;4.63;;
48522;SDS011;34315;50.150;11.070;2023-02-28T05:10:37;7.80;;;4.03;;
48522;SDS011;34315;50.150;11.070;2023-02-28T05:15:38;7.03;;;4.00;;
48522;SDS011;34315;50.150;11.070;2023-02-28T05:20:39;10.57;;;4.22;;
48522;SDS011;34315;50.150;11.070;2023-02-28T05:25:41;8.68;;;4.75;;
48522;SDS011;34315;50.150;11.070;2023-02-28T05:30:42;8.65;;;4.45;;
48522;SDS011;34315;50.150;11.070;2023-02-28T05:35:44;13.93;;;6.38;;
48522;SDS011;34315;50.150;11.070;2023-02-28T05:40:45;16.33;;;6.75;;
48522;SDS011;34315;50.150;11.070;2023-02-28T05:45:46;15.55;;;7.20;;
48522;SDS011;34315;50.150;11.070;2023-02-28T05:50:47;12.23;;;5.93;;
48522;SDS011;34315;50.150;11.070;2023-02-28T05:55:48;10.07;;;5.43;;
48522;SDS011;34315;50.150;11.070;2023-02-28T06:00:49;9.32;;;5.15;;
48522;SDS011;34315;50.150;11.070;2023-02-28T06:05:50;10.23;;;4.47;;
48522;SDS011;34315;50.150;11.070;2023-02-28T06:10:51;10.20;;;4.95;;
48522;SDS011;34315;50.150;11.070;2023-02-28T06:15:52;12.10;;;5.22;;
48522;SDS011;34315;50.150;11.070;2023-02-28T06:20:54;10.13;;;4.28;;
48522;SDS011;34315;50.150;11.070;2023-02-28T06:25:56;11.02;;;5.15;;
48522;SDS011;34315;50.150;11.070;2023-02-28T06:30:58;11.10;;;5.32;;
48522;SDS011;34315;50.150;11.070;2023-02-28T06:35:59;8.63;;;4.38;;
48522;SDS011;34315;50.150;11.070;2023-02-28T06:41:01;10.88;;;5.38;;
48522;SDS011;34315;50.150;11.070;2023-02-28T06:46:04;11.98;;;5.78;;
48522;SDS011;34315;50.150;11.070;2023-02-28T06:51:09;13.95;;;6.38;;
48522;SDS011;34315;50.150;11.070;2023-02-28T06:56:14;9.63;;;5.05;;
48522;SDS011;34315;50.150;11.070;2023-02-28T07:01:16;12.00;;;5.75;;
48522;SDS011;34315;50.150;11.070;2023-02-28T07:06:18;9.98;;;5.18;;
48522;SDS011;34315;50.150;11.070;2023-02-28T07:11:24;13.30;;;5.60;;
48522;SDS011;34315;50.150;11.070;2023-02-28T07:16:26;8.90;;;5.25;;
48522;SDS011;34315;50.150;11.070;2023-02-28T07:21:27;9.60;;;5.88;;
48522;SDS011;34315;50.150;11.070;2023-02-28T07:26:29;15.43;;;5.90;;
48522;SDS011;34315;50.150;11.070;2023-02-28T07:31:30;12.68;;;5.32;;
48522;SDS011;34315;50.150;11.070;2023-02-28T07:36:31;11.90;;;5.22;;
48522;SDS011;34315;50.150;11.070;2023-02-28T07:41:32;11.50;;;6.03;;
48522;SDS011;34315;50.150;11.070;2023-02-28T07:46:34;10.00;;;5.30;;
48522;SDS011;34315;50.150;11.070;2023-02-28T07:51:36;10.90;;;5.70;;
48522;SDS011;34315;50.150;11.070;2023-02-28T07:56:37;9.68;;;5.85;;
48522;SDS011;34315;50.150;11.070;2023-02-28T08:01:38;13.00;;;6.03;;
48522;SDS011;34315;50.150;11.070;2023-02-28T08:06:40;10.15;;;5.05;;
48522;SDS011;34315;50.150;11.070;2023-02-28T08:11:41;13.48;;;5.35;;
48522;SDS011;34315;50.150;11.070;2023-02-28T08:16:42;9.45;;;4.82;;
48522;SDS011;34315;50.150;11.070;2023-02-28T08:21:43;9.00;;;4.82;;
48522;SDS011;34315;50.150;11.070;2023-02-28T08:26:44;10.32;;;5.15;;
48522;SDS011;34315;50.150;11.070;2023-02-28T08:31:45;10.60;;;4.57;;
48522;SDS011;34315;50.150;11.070;2023-02-28T08:36:46;10.20;;;5.10;;
48522;SDS011;34315;50.150;11.070;2023-02-28T08:41:48;8.75;;;4.53;;
48522;SDS011;34315;50.150;11.070;2023-02-28T08:46:49;9.77;;;4.85;;
48522;SDS011;34315;50.150;11.070;2023-02-28T08:51:50;8.32;;;4.28;;
48522;SDS011;34315;50.150;11.070;2023-02-28T08:56:51;8.95;;;4.93;;
48522;SDS011;34315;50.150;11.070;2023-02-28T09:01:54;8.07;;;4.78;;
48522;SDS011;34315;50.150;11.070;2023-02-28T09:06:56;9.50;;;4.50;;
48522;SDS011;34315;50.150;11.070;2023-02-28T09:11:57;10.57;;;6.00;;
48522;SDS011;34315;50.150;11.070;2023-02-28T09:16:58;10.38;;;5.18;;
48522;SDS011;34315;50.150;11.070;2023-02-28T09:22:01;8.32;;;4.60;;
48522;SDS011;34315;50.150;11.070;2023-02-28T09:27:03;8.77;;;5.10;;
48522;SDS011;34315;50.150;11.070;2023-02-28T09:32:05;8.32;;;4.53;;
48522;SDS011;34315;50.150;11.070;2023-02-28T09:37:08;7.47;;;4.63;;
48522;SDS011;34315;50.150;11.070;2023-02-28T09:42:21;9.20;;;3.75;;
48522;SDS011;34315;50.150;11.070;2023-02-28T09:47:34;7.43;;;4.00;;
48522;SDS011;34315;50.150;11.070;2023-02-28T09:52:41;8.02;;;4.30;;
48522;SDS011;34315;50.150;11.070;2023-02-28T09:57:43;6.40;;;3.70;;
48522;SDS011;34315;50.150;11.070;2023-02-28T10:02:49;7.45;;;4.10;;
48522;SDS011;34315;50.150;11.070;2023-02-28T10:08:05;9.38;;;3.78;;
48522;SDS011;34315;50.150;11.070;2023-02-28T10:13:17;11.63;;;3.78;;
48522;SDS011;34315;50.150;11.070;2023-02-28T10:23:53;11.23;;;4.25;;
48522;SDS011;34315;50.150;11.070;2023-02-28T10:29:12;8.15;;;3.63;;
48522;SDS011;34315;50.150;11.070;2023-02-28T10:34:15;6.38;;;3.25;;
48522;SDS011;34315;50.150;11.070;2023-02-28T10:44:40;12.40;;;4.10;;
48522;SDS011;34315;50.150;11.070;2023-02-28T10:49:52;6.63;;;3.67;;
48522;SDS011;34315;50.150;11.070;2023-02-28T10:54:53;6.28;;;4.22;;
48522;SDS011;34315;50.150;11.070;2023-02-28T11:00:18;8.02;;;3.88;;
48522;SDS011;34315;50.150;11.070;2023-02-28T11:05:32;8.35;;;4.00;;
48522;SDS011;34315;50.150;11.070;2023-02-28T11:10:37;10.00;;;4.03;;
48522;SDS011;34315;50.150;11.070;2023-02-28T11:15:39;8.63;;;4.22;;
48522;SDS011;34315;50.150;11.070;2023-02-28T11:20:41;6.65;;;4.00;;
48522;SDS011;34315;50.150;11.070;2023-02-28T11:25:46;7.88;;;3.97;;
48522;SDS011;34315;50.150;11.070;2023-02-28T11:36:16;9.57;;;4.22;;
48522;SDS011;34315;50.150;11.070;2023-02-28T11:41:27;8.10;;;3.90;;
48522;SDS011;34315;50.150;11.070;2023-02-28T11:46:41;8.05;;;4.43;;
48522;SDS011;34315;50.150;11.070;2023-02-28T11:51:59;7.90;;;4.25;;
48522;SDS011;34315;50.150;11.070;2023-02-28T11:57:11;13.30;;;5.03;;
48522;SDS011;34315;50.150;11.070;2023-02-28T12:23:57;9.40;;;5.25;;
48522;SDS011;34315;50.150;11.070;2023-02-28T12:34:36;9.52;;;4.65;;
48522;SDS011;34315;50.150;11.070;2023-02-28T12:39:44;7.20;;;4.72;;
48522;SDS011;34315;50.150;11.070;2023-02-28T12:44:47;8.15;;;4.40;;
48522;SDS011;34315;50.150;11.070;2023-02-28T12:49:54;10.77;;;4.60;;
48522;SDS011;34315;50.150;11.070;2023-02-28T12:55:00;8.13;;;4.22;;
48522;SDS011;34315;50.150;11.070;2023-02-28T13:05:44;9.25;;;4.18;;
48522;SDS011;34315;50.150;11.070;2023-02-28T13:11:03;7.22;;;3.47;;
48522;SDS011;34315;50.150;11.070;2023-02-28T13:16:09;8.57;;;4.43;;
48522;SDS011;34315;50.150;11.070;2023-02-28T13:21:27;9.43;;;3.83;;
48522;SDS011;34315;50.150;11.070;2023-02-28T13:31:30;5.93;;;3.90;;
48522;SDS011;34315;50.150;11.070;2023-02-28T13:36:34;8.73;;;4.40;;
48522;SDS011;34315;50.150;11.070;2023-02-28T13:41:42;8.32;;;4.10;;
48522;SDS011;34315;50.150;11.070;2023-02-28T13:51:52;6.97;;;4.05;;
48522;SDS011;34315;50.150;11.070;2023-02-28T14:02:45;7.93;;;4.47;;
48522;SDS011;34315;50.150;11.070;2023-02-28T14:07:59;10.65;;;4.53;;
48522;SDS011;34315;50.150;11.070;2023-02-28T14:18:29;9.85;;;5.50;;
48522;SDS011;34315;50.150;11.070;2023-02-28T14:23:36;8.50;;;4.60;;
48522;SDS011;34315;50.150;11.070;2023-02-28T14:29:19;7.80;;;4.57;;
48522;SDS011;34315;50.150;11.070;2023-02-28T14:34:45;7.55;;;4.30;;
48522;SDS011;34315;50.150;11.070;2023-02-28T14:39:54;8.35;;;5.15;;
48522;SDS011;34315;50.150;11.070;2023-02-28T14:44:56;8.57;;;4.70;;
48522;SDS011;34315;50.150;11.070;2023-02-28T14:49:58;9.98;;;4.90;;
48522;SDS011;34315;50.150;11.070;2023-02-28T14:55:03;11.85;;;5.40;;
48522;SDS011;34315;50.150;11.070;2023-02-28T15:10:21;7.88;;;4.97;;
48522;SDS011;34315;50.150;11.070;2023-02-28T15:15:25;8.93;;;4.85;;
48522;SDS011;34315;50.150;11.070;2023-02-28T15:20:47;14.98;;;5.10;;
48522;SDS011;34315;50.150;11.070;2023-02-28T15:25:48;11.65;;;6.43;;
48522;SDS011;34315;50.150;11.070;2023-02-28T15:30:56;10.82;;;5.75;;
48522;SDS011;34315;50.150;11.070;2023-02-28T15:36:06;12.80;;;5.70;;
48522;SDS011;34315;50.150;11.070;2023-02-28T15:41:56;9.40;;;5.10;;
48522;SDS011;34315;50.150;11.070;2023-02-28T15:46:39;8.48;;;5.15;;
48522;SDS011;34315;50.150;11.070;2023-02-28T15:51:46;9.98;;;5.63;;
48522;SDS011;34315;50.150;11.070;2023-02-28T15:56:53;9.52;;;5.20;;
48522;SDS011;34315;50.150;11.070;2023-02-28T16:02:04;8.27;;;5.40;;
48522;SDS011;34315;50.150;11.070;2023-02-28T16:07:13;10.77;;;5.43;;
48522;SDS011;34315;50.150;11.070;2023-02-28T16:12:15;9.27;;;5.68;;
48522;SDS011;34315;50.150;11.070;2023-02-28T16:17:23;9.00;;;5.40;;
48522;SDS011;34315;50.150;11.070;2023-02-28T16:22:26;8.75;;;5.15;;
48522;SDS011;34315;50.150;11.070;2023-02-28T16:27:29;9.82;;;5.20;;
48522;SDS011;34315;50.150;11.070;2023-02-28T16:32:34;10.23;;;5.50;;
48522;SDS011;34315;50.150;11.070;2023-02-28T16:37:35;10.98;;;6.07;;
48522;SDS011;34315;50.150;11.070;2023-02-28T16:42:36;11.60;;;5.57;;
48522;SDS011;34315;50.150;11.070;2023-02-28T16:47:38;13.13;;;7.05;;
48522;SDS011;34315;50.150;11.070;2023-02-28T16:52:39;12.30;;;6.40;;
48522;SDS011;34315;50.150;11.070;2023-02-28T16:57:40;10.23;;;6.15;;
48522;SDS011;34315;50.150;11.070;2023-02-28T17:02:42;10.30;;;5.75;;
48522;SDS011;34315;50.150;11.070;2023-02-28T17:07:43;9.68;;;6.20;;
48522;SDS011;34315;50.150;11.070;2023-02-28T17:12:44;12.35;;;6.10;;
48522;SDS011;34315;50.150;11.070;2023-02-28T17:17:45;12.88;;;6.05;;
48522;SDS011;34315;50.150;11.070;2023-02-28T17:22:48;10.60;;;6.80;;
48522;SDS011;34315;50.150;11.070;2023-02-28T17:27:50;11.88;;;6.40;;
48522;SDS011;34315;50.150;11.070;2023-02-28T17:32:57;12.98;;;6.63;;
48522;SDS011;34315;50.150;11.070;2023-02-28T17:37:58;12.13;;;6.68;;
48522;SDS011;34315;50.150;11.070;2023-02-28T17:42:59;16.60;;;8.32;;
48522;SDS011;34315;50.150;11.070;2023-02-28T17:48:00;13.65;;;7.97;;
48522;SDS011;34315;50.150;11.070;2023-02-28T17:53:01;13.95;;;7.85;;
48522;SDS011;34315;50.150;11.070;2023-02-28T17:58:03;12.23;;;7.15;;
48522;SDS011;34315;50.150;11.070;2023-02-28T18:03:04;14.18;;;7.18;;
48522;SDS011;34315;50.150;11.070;2023-02-28T18:08:05;12.43;;;7.22;;
48522;SDS011;34315;50.150;11.070;2023-02-28T18:13:06;15.75;;;8.90;;
48522;SDS011;34315;50.150;11.070;2023-02-28T18:18:08;21.15;;;7.68;;
48522;SDS011;34315;50.150;11.070;2023-02-28T18:23:09;13.65;;;7.15;;
48522;SDS011;34315;50.150;11.070;2023-02-28T18:28:10;11.45;;;7.40;;
48522;SDS011;34315;50.150;11.070;2023-02-28T18:33:11;15.30;;;8.55;;
48522;SDS011;34315;50.150;11.070;2023-02-28T18:38:16;15.65;;;8.15;;
48522;SDS011;34315;50.150;11.070;2023-02-28T18:43:19;16.30;;;8.82;;
48522;SDS011;34315;50.150;11.070;2023-02-28T18:48:20;18.48;;;9.60;;
48522;SDS011;34315;50.150;11.070;2023-02-28T18:53:22;19.15;;;10.00;;
48522;SDS011;34315;50.150;11.070;2023-02-28T18:58:24;20.00;;;9.38;;
48522;SDS011;34315;50.150;11.070;2023-02-28T19:03:25;17.20;;;9.68;;
48522;SDS011;34315;50.150;11.070;2023-02-28T19:08:26;18.17;;;8.90;;
48522;SDS011;34315;50.150;11.070;2023-02-28T19:13:27;19.33;;;9.38;;
48522;SDS011;34315;50.150;11.070;2023-02-28T19:18:28;15.85;;;10.05;;
48522;SDS011;34315;50.150;11.070;2023-02-28T19:23:30;18.02;;;9.82;;
48522;SDS011;34315;50.150;11.070;2023-02-28T19:28:32;21.88;;;9.50;;
48522;SDS011;34315;50.150;11.070;2023-02-28T19:33:33;16.42;;;9.45;;
48522;SDS011;34315;50.150;11.070;2023-02-28T19:38:34;19.52;;;9.43;;
48522;SDS011;34315;50.150;11.070;2023-02-28T19:43:35;15.30;;;8.77;;
48522;SDS011;34315;50.150;11.070;2023-02-28T19:48:36;17.30;;;9.23;;
48522;SDS011;34315;50.150;11.070;2023-02-28T19:53:39;18.20;;;9.45;;
48522;SDS011;34315;50.150;11.070;2023-02-28T19:58:41;19.80;;;9.27;;
48522;SDS011;34315;50.150;11.070;2023-02-28T20:03:42;22.63;;;10.98;;
48522;SDS011;34315;50.150;11.070;2023-02-28T20:08:44;22.65;;;11.45;;
48522;SDS011;34315;50.150;11.070;2023-02-28T20:13:45;21.33;;;11.93;;
48522;SDS011;34315;50.150;11.070;2023-02-28T20:18:48;19.85;;;11.50;;
48522;SDS011;34315;50.150;11.070;2023-02-28T20:23:53;20.77;;;11.38;;
48522;SDS011;34315;50.150;11.070;2023-02-28T20:28:54;22.90;;;11.50;;
48522;SDS011;34315;50.150;11.070;2023-02-28T20:33:55;24.27;;;12.32;;
48522;SDS011;34315;50.150;11.070;2023-02-28T20:38:56;29.80;;;14.18;;
48522;SDS011;34315;50.150;11.070;2023-02-28T20:43:57;23.02;;;12.38;;
48522;SDS011;34315;50.150;11.070;2023-02-28T20:48:59;23.60;;;11.70;;
48522;SDS011;34315;50.150;11.070;2023-02-28T20:54:00;19.30;;;10.68;;
48522;SDS011;34315;50.150;11.070;2023-02-28T20:59:01;19.55;;;10.25;;
48522;SDS011;34315;50.150;11.070;2023-02-28T21:04:04;16.02;;;9.38;;
48522;SDS011;34315;50.150;11.070;2023-02-28T21:09:06;19.60;;;10.15;;
48522;SDS011;34315;50.150;11.070;2023-02-28T21:14:11;18.60;;;10.13;;
48522;SDS011;34315;50.150;11.070;2023-02-28T21:19:15;21.75;;;10.30;;
48522;SDS011;34315;50.150;11.070;2023-02-28T21:24:18;22.98;;;10.82;;
48522;SDS011;34315;50.150;11.070;2023-02-28T21:29:19;22.20;;;11.00;;
48522;SDS011;34315;50.150;11.070;2023-02-28T21:34:20;20.17;;;11.25;;
48522;SDS011;34315;50.150;11.070;2023-02-28T21:39:23;24.27;;;10.85;;
48522;SDS011;34315;50.150;11.070;2023-02-28T21:44:25;19.63;;;10.43;;
48522;SDS011;34315;50.150;11.070;2023-02-28T21:49:27;20.83;;;10.40;;
48522;SDS011;34315;50.150;11.070;2023-02-28T21:54:29;18.40;;;9.13;;
48522;SDS011;34315;50.150;11.070;2023-02-28T21:59:30;21.42;;;9.77;;
48522;SDS011;34315;50.150;11.070;2023-02-28T22:04:32;23.77;;;11.02;;
48522;SDS011;34315;50.150;11.070;2023-02-28T22:09:34;17.08;;;8.82;;
48522;SDS011;34315;50.150;11.070;2023-02-28T22:14:35;24.00;;;9.73;;
48522;SDS011;34315;50.150;11.070;2023-02-28T22:19:36;17.63;;;8.98;;
48522;SDS011;34315;50.150;11.070;2023-02-28T22:24:38;18.63;;;10.27;;
48522;SDS011;34315;50.150;11.070;2023-02-28T22:29:39;20.55;;;10.05;;
48522;SDS011;34315;50.150;11.070;2023-02-28T22:34:40;17.25;;;9.02;;
48522;SDS011;34315;50.150;11.070;2023-02-28T22:39:41;23.88;;;9.73;;
48522;SDS011;34315;50.150;11.070;2023-02-28T22:44:42;18.52;;;9.57;;
48522;SDS011;34315;50.150;11.070;2023-02-28T22:49:46;22.90;;;10.25;;
48522;SDS011;34315;50.150;11.070;2023-02-28T22:54:50;18.08;;;9.73;;
48522;SDS011;34315;50.150;11.070;2023-02-28T22:59:51;21.75;;;9.63;;
48522;SDS011;34315;50.150;11.070;2023-02-28T23:04:53;19.60;;;10.13;;
48522;SDS011;34315;50.150;11.070;2023-02-28T23:09:54;20.38;;;10.00;;
48522;SDS011;34315;50.150;11.070;2023-02-28T23:14:56;22.73;;;10.05;;
48522;SDS011;34315;50.150;11.070;2023-02-28T23:19:57;21.33;;;10.10;;
48522;SDS011;34315;50.150;11.070;2023-02-28T23:24:58;18.05;;;9.52;;
48522;SDS011;34315;50.150;11.070;2023-02-28T23:29:59;17.08;;;9.48;;
48522;SDS011;34315;50.150;11.070;2023-02-28T23:35:00;20.35;;;9.07;;
48522;SDS011;34315;50.150;11.070;2023-02-28T23:40:01;19.58;;;9.30;;
48522;SDS011;34315;50.150;11.070;2023-02-28T23:45:04;19.48;;;9.77;;
48522;SDS011;34315;50.150;11.070;2023-02-28T23:50:06;19.92;;;10.05;;
48522;SDS011;34315;50.150;11.070;2023-02-28T23:55:07;26.08;;;11.75;;
